Time;durP1;ratioP1;P1;durP2;ratioP2;P2;SDS_P1;SDS_P2;PMS_P1;PMS_P2;Temp;Humidity;BMP_temperature;BMP_pressure;BME280_temperature;BME280_humidity;BME280_pressure;Samples;Min_cycle;Max_cycle;Signal;HPM_P1;HPM_P2
2021/07/07 00:05:41;;;;;;;3.83;1.17;;;21.20;47.70;;;;;;20829695;28;20187;-66
2021/07/07 00:15:43;;;;;;;4.20;1.50;;;21.10;47.90;;;;;;20828761;28;20056;-60
2021/07/07 00:25:44;;;;;;;6.20;1.83;;;21.10;48.20;;;;;;20810887;28;20172;-62
2021/07/07 00:35:46;;;;;;;2.72;1.58;;;21.00;48.20;;;;;;20828259;28;20088;-60
2021/07/07 00:45:47;;;;;;;4.13;1.63;;;20.90;48.60;;;;;;20828159;28;20085;-67
2021/07/07 00:55:49;;;;;;;7.32;1.90;;;20.80;48.60;;;;;;20827531;28;20045;-69
2021/07/07 01:05:50;;;;;;;5.00;1.63;;;20.70;48.80;;;;;;20842706;28;20069;-66
2021/07/07 01:15:55;;;;;;;5.53;1.60;;;20.50;48.80;;;;;;20842116;28;20111;-64
2021/07/07 01:25:57;;;;;;;6.72;2.47;;;20.50;48.70;;;;;;20842182;28;20054;-67
2021/07/07 01:35:58;;;;;;;4.35;1.85;;;20.40;48.60;;;;;;20841100;28;20092;-68
2021/07/07 01:46:00;;;;;;;5.43;1.77;;;20.40;48.20;;;;;;20839553;28;20053;-67
2021/07/07 01:56:01;;;;;;;5.32;1.83;;;20.30;48.20;;;;;;20839637;28;20057;-67
2021/07/07 02:06:03;;;;;;;3.42;1.30;;;20.20;47.40;;;;;;20838312;28;20041;-63
2021/07/07 02:16:05;;;;;;;3.63;1.67;;;20.10;47.30;;;;;;20836363;28;20081;-64
2021/07/07 02:26:07;;;;;;;6.97;1.70;;;19.90;47.40;;;;;;20835901;28;20052;-63
2021/07/07 02:36:08;;;;;;;2.90;1.25;;;19.70;47.70;;;;;;20835204;28;20053;-69
2021/07/07 02:46:10;;;;;;;3.10;1.42;;;19.50;47.90;;;;;;20834822;28;20053;-62
2021/07/07 02:56:11;;;;;;;4.43;1.45;;;19.50;48.00;;;;;;20833202;28;20056;-67
2021/07/07 03:06:13;;;;;;;3.50;1.30;;;19.30;48.20;;;;;;20832630;28;20057;-65
2021/07/07 03:16:14;;;;;;;3.45;1.50;;;19.20;48.10;;;;;;20832024;28;20050;-67
2021/07/07 03:26:16;;;;;;;6.45;2.58;;;19.20;48.90;;;;;;20832876;28;20620;-66
2021/07/07 03:36:19;;;;;;;6.18;2.30;;;19.10;49.40;;;;;;20831284;28;20131;-68
2021/07/07 03:46:21;;;;;;;5.13;1.40;;;19.00;51.50;;;;;;20830296;28;20131;-67
2021/07/07 03:56:25;;;;;;;3.97;1.90;;;;;;;;;;20829739;28;20049;-66
2021/07/07 04:06:28;;;;;;;;;;;18.20;54.10;;;;;;20829509;28;20049;-68
2021/07/07 04:16:30;;;;;;;3.75;1.60;;;17.80;54.80;;;;;;20828609;28;19921;-68
2021/07/07 04:26:34;;;;;;;2.25;1.42;;;17.70;55.20;;;;;;20829238;28;20564;-68
2021/07/07 04:36:37;;;;;;;4.38;1.52;;;17.70;56.00;;;;;;20837556;28;20053;-68
2021/07/07 04:46:40;;;;;;;6.78;1.90;;;18.00;55.00;;;;;;20844023;28;20050;-67
2021/07/07 04:56:46;;;;;;;3.92;1.92;;;17.40;56.60;;;;;;20843170;28;20115;-70
2021/07/07 05:06:49;;;;;;;4.57;1.95;;;17.50;56.60;;;;;;20842033;28;20054;-70
2021/07/07 05:16:51;;;;;;;5.82;2.17;;;17.50;57.20;;;;;;20842225;28;20497;-70
2021/07/07 05:26:53;;;;;;;2.40;1.40;;;17.50;57.40;;;;;;20842519;28;20072;-68
2021/07/07 05:36:55;;;;;;;3.85;1.90;;;17.30;58.30;;;;;;20839607;28;20053;-69
2021/07/07 05:46:57;;;;;;;2.83;1.75;;;17.50;57.80;;;;;;20838259;28;20425;-72
2021/07/07 05:57:00;;;;;;;4.65;2.20;;;17.50;57.70;;;;;;20838599;28;20421;-70
2021/07/07 06:07:02;;;;;;;2.92;2.30;;;17.40;58.10;;;;;;20839302;28;20414;-65
2021/07/07 06:17:05;;;;;;;5.47;2.40;;;17.40;58.10;;;;;;20837287;28;20485;-69
2021/07/07 06:27:08;;;;;;;7.77;2.50;;;17.60;57.30;;;;;;20836554;28;20533;-69
2021/07/07 06:37:12;;;;;;;6.10;2.50;;;17.70;57.00;;;;;;20835251;28;20081;-70
2021/07/07 06:47:13;;;;;;;3.77;2.50;;;18.00;56.50;;;;;;20834564;28;20131;-65
2021/07/07 06:57:16;;;;;;;7.20;2.40;;;18.10;56.30;;;;;;20833201;28;20053;-70
2021/07/07 07:07:18;;;;;;;6.13;2.63;;;18.60;55.60;;;;;;20832542;28;20103;-62
2021/07/07 07:17:25;;;;;;;6.05;3.47;;;19.40;53.40;;;;;;20832571;28;20053;-66
2021/07/07 07:27:27;;;;;;;5.80;2.70;;;20.40;50.00;;;;;;20831997;28;20060;-61
2021/07/07 07:37:40;;;;;;;3.88;2.13;;;21.20;47.50;;;;;;20830546;28;20137;-63
2021/07/07 07:47:43;;;;;;;4.60;2.33;;;22.90;46.60;;;;;;20832217;28;20060;-65
2021/07/07 07:57:44;;;;;;;7.13;2.70;;;23.30;42.40;;;;;;20829623;28;20401;-67
2021/07/07 08:07:47;;;;;;;6.47;2.07;;;23.40;42.00;;;;;;20832370;28;20385;-63
2021/07/07 08:17:49;;;;;;;3.83;2.13;;;23.80;40.50;;;;;;20845293;28;20061;-63
2021/07/07 08:27:54;;;;;;;4.47;1.88;;;24.20;38.70;;;;;;20845152;28;20045;-66
2021/07/07 08:37:55;;;;;;;4.47;2.08;;;24.40;38.00;;;;;;20844222;28;20064;-68
2021/07/07 08:47:58;;;;;;;4.43;1.75;;;24.70;37.20;;;;;;20843548;28;20055;-66
2021/07/07 08:58:02;;;;;;;3.53;1.40;;;25.20;36.50;;;;;;20842585;28;20053;-69
2021/07/07 09:08:07;;;;;;;5.22;1.63;;;25.30;36.00;;;;;;20842025;28;20099;-63
2021/07/07 09:18:19;;;;;;;3.38;1.35;;;25.60;35.30;;;;;;20824456;28;20556;-66
2021/07/07 09:28:43;;;;;;;2.95;1.67;;;25.80;35.50;;;;;;20841489;28;20052;-70
2021/07/07 09:38:45;;;;;;;5.03;1.50;;;26.20;33.70;;;;;;20840502;28;20056;-68
2021/07/07 09:48:47;;;;;;;3.75;2.10;;;26.10;33.00;;;;;;20840244;28;20045;-70
2021/07/07 09:58:50;;;;;;;3.95;1.63;;;26.40;31.80;;;;;;20820945;28;20089;-70
2021/07/07 10:08:53;;;;;;;4.95;1.00;;;26.80;30.90;;;;;;20839189;28;20440;-73
2021/07/07 10:18:54;;;;;;;4.65;1.00;;;26.90;29.70;;;;;;20819780;28;20096;-63
2021/07/07 10:28:56;;;;;;;;;;;26.50;30.60;;;;;;20836146;28;20049;-66
2021/07/07 10:39:05;;;;;;;2.60;1.10;;;26.40;30.60;;;;;;20835171;28;20019;-64
2021/07/07 10:49:36;;;;;;;4.57;1.00;;;26.60;29.70;;;;;;20835300;28;20548;-67
2021/07/07 10:59:45;;;;;;;7.05;3.30;;;26.60;30.40;;;;;;20833951;28;20053;-67
2021/07/07 11:09:52;;;;;;;5.60;1.35;;;26.60;29.70;;;;;;20834142;28;20111;-65
2021/07/07 11:19:57;;;;;;;2.50;1.88;;;26.50;29.40;;;;;;20834202;28;20053;-68
2021/07/07 11:30:00;;;;;;;3.00;1.23;;;26.60;30.20;;;;;;20833135;28;20076;-64
2021/07/07 11:40:07;;;;;;;3.00;1.13;;;26.50;30.10;;;;;;20831845;28;20103;-68
2021/07/07 11:50:11;;;;;;;4.80;1.10;;;26.30;30.60;;;;;;20831568;28;20481;-65
2021/07/07 12:00:14;;;;;;;2.92;1.10;;;26.40;30.30;;;;;;20833904;28;20060;-66
2021/07/07 12:10:27;;;;;;;3.05;1.08;;;26.50;30.40;;;;;;20812535;28;20133;-64
2021/07/07 12:20:33;;;;;;;7.70;1.27;;;26.70;29.50;;;;;;20831558;28;20068;-65
2021/07/07 12:30:38;;;;;;;1.65;0.93;;;26.50;29.90;;;;;;20830792;28;20581;-69
2021/07/07 12:40:39;;;;;;;2.85;1.70;;;26.40;29.10;;;;;;20828074;28;20092;-69
2021/07/07 12:50:43;;;;;;;1.73;1.00;;;26.60;29.20;;;;;;20828278;28;20054;-65
2021/07/07 13:00:46;;;;;;;3.63;1.10;;;26.70;29.00;;;;;;20840564;28;20115;-70
2021/07/07 13:10:51;;;;;;;3.42;1.27;;;27.10;29.40;;;;;;20843542;28;20493;-68
2021/07/07 13:21:02;;;;;;;2.40;1.00;;;26.90;29.20;;;;;;20843924;28;20077;-69
2021/07/07 13:31:12;;;;;;;1.98;0.80;;;27.20;30.10;;;;;;20842014;28;20076;-67
2021/07/07 13:41:14;;;;;;;3.38;1.65;;;27.30;29.60;;;;;;20841848;28;20046;-70
2021/07/07 13:51:16;;;;;;;0.90;0.80;;;27.30;29.80;;;;;;20839870;28;20048;-68
2021/07/07 14:01:18;;;;;;;1.63;0.85;;;27.30;29.40;;;;;;20840684;28;20060;-66
2021/07/07 14:11:19;;;;;;;1.80;0.80;;;27.30;29.10;;;;;;20835554;28;20084;-68
2021/07/07 14:21:21;;;;;;;1.30;0.70;;;27.30;27.90;;;;;;20836053;28;20061;-70
2021/07/07 14:31:23;;;;;;;2.42;0.82;;;27.20;26.70;;;;;;20836052;28;20056;-70
2021/07/07 14:41:28;;;;;;;3.20;1.23;;;27.20;27.60;;;;;;20834729;28;20053;-70
2021/07/07 14:51:30;;;;;;;2.60;1.48;;;27.30;26.20;;;;;;20833591;28;20136;-70
2021/07/07 15:01:31;;;;;;;2.38;0.80;;;27.50;26.30;;;;;;20833680;28;20051;-70
2021/07/07 15:11:33;;;;;;;1.27;0.77;;;27.50;25.90;;;;;;20833136;28;20103;-67
2021/07/07 15:21:35;;;;;;;3.88;1.95;;;27.40;25.10;;;;;;20831463;28;20136;-66
2021/07/07 15:31:37;;;;;;;1.92;1.33;;;27.60;25.40;;;;;;20831586;28;20053;-66
2021/07/07 15:41:38;;;;;;;3.13;0.70;;;27.60;25.90;;;;;;20831125;28;20049;-67
2021/07/07 15:51:41;;;;;;;1.55;0.90;;;27.50;25.70;;;;;;20831219;28;20457;-69
2021/07/07 16:01:44;;;;;;;1.25;0.90;;;27.40;26.90;;;;;;20831838;28;20120;-69
2021/07/07 16:11:47;;;;;;;1.98;0.68;;;27.40;27.40;;;;;;20815769;28;20052;-72
2021/07/07 16:21:54;;;;;;;1.33;0.70;;;27.20;27.30;;;;;;20832203;28;20053;-72
2021/07/07 16:31:55;;;;;;;1.52;0.70;;;27.10;28.20;;;;;;20841745;28;20075;-67
2021/07/07 16:41:57;;;;;;;2.20;1.40;;;27.00;27.60;;;;;;20847106;28;20517;-67
2021/07/07 16:52:00;;;;;;;2.45;0.90;;;26.90;28.20;;;;;;20830169;28;20504;-70
2021/07/07 17:02:03;;;;;;;1.23;0.75;;;26.90;27.90;;;;;;20845771;28;20081;-69
2021/07/07 17:12:05;;;;;;;1.67;1.00;;;27.00;27.60;;;;;;20841697;28;20087;-67
2021/07/07 17:22:07;;;;;;;1.85;0.60;;;26.80;27.70;;;;;;20840522;28;20513;-71
2021/07/07 17:32:10;;;;;;;1.40;0.80;;;26.60;27.20;;;;;;20840928;28;20053;-70
2021/07/07 17:42:12;;;;;;;5.20;2.08;;;26.60;27.60;;;;;;20840274;28;20049;-63
2021/07/07 17:52:14;;;;;;;2.35;0.80;;;26.60;27.70;;;;;;20839223;28;20049;-65
2021/07/07 18:02:16;;;;;;;2.63;1.73;;;26.40;27.20;;;;;;20837334;28;20132;-64
2021/07/07 18:12:18;;;;;;;1.30;0.80;;;26.30;28.40;;;;;;20838242;28;20049;-67
2021/07/07 18:22:20;;;;;;;2.53;1.17;;;26.30;27.90;;;;;;20837049;28;20133;-68
2021/07/07 18:32:20;;;;;;;7.22;5.35;;;26.30;28.50;;;;;;20836654;28;20056;-73
2021/07/07 18:42:22;;;;;;;3.07;1.40;;;26.20;27.90;;;;;;20836007;28;20045;-71
2021/07/07 18:52:22;;;;;;;7.27;1.50;;;26.00;27.90;;;;;;20834911;28;20119;-72
2021/07/07 19:02:23;;;;;;;1.93;0.90;;;25.80;28.20;;;;;;20834337;28;20061;-68
2021/07/07 19:12:24;;;;;;;2.83;0.70;;;25.70;27.40;;;;;;20814984;28;20418;-70
2021/07/07 19:22:26;;;;;;;1.50;0.80;;;25.60;27.20;;;;;;20829867;28;20426;-66
2021/07/07 19:32:28;;;;;;;1.52;0.70;;;25.40;28.40;;;;;;20828205;28;20085;-68
2021/07/07 19:42:29;;;;;;;1.50;1.13;;;25.30;27.80;;;;;;20826931;28;20049;-63
2021/07/07 19:52:31;;;;;;;2.25;1.20;;;25.00;27.70;;;;;;20826837;28;20095;-65
2021/07/07 20:02:33;;;;;;;1.63;1.13;;;24.90;29.00;;;;;;20824771;28;20080;-66
2021/07/07 20:12:35;;;;;;;1.90;1.00;;;24.70;28.20;;;;;;20826610;28;20042;-66
2021/07/07 20:22:38;;;;;;;2.15;1.30;;;24.60;28.20;;;;;;20784603;28;1232961;-64
2021/07/07 20:32:41;;;;;;;3.83;1.23;;;24.30;28.80;;;;;;20828301;28;20068;-64
2021/07/07 20:42:43;;;;;;;3.05;1.35;;;24.20;29.30;;;;;;20828517;28;20050;-68
2021/07/07 20:52:45;;;;;;;1.88;0.80;;;24.00;29.70;;;;;;20827572;28;20080;-68
2021/07/07 21:02:48;;;;;;;3.15;1.10;;;23.90;29.80;;;;;;20828119;28;20053;-66
2021/07/07 21:12:50;;;;;;;1.83;1.10;;;23.80;30.00;;;;;;20827062;28;20119;-65
2021/07/07 21:22:53;;;;;;;;;;;23.70;30.20;;;;;;20842323;28;20148;-68
2021/07/07 21:32:54;;;;;;;1.92;1.27;;;23.50;30.80;;;;;;20841648;28;19967;-68
2021/07/07 21:42:56;;;;;;;3.47;1.37;;;23.50;30.90;;;;;;20841679;28;20490;-68
2021/07/07 21:52:58;;;;;;;1.90;1.10;;;23.40;31.20;;;;;;20839953;28;20106;-66
2021/07/07 22:03:05;;;;;;;2.37;1.20;;;23.30;31.40;;;;;;20821388;28;20127;-67
2021/07/07 22:13:07;;;;;;;1.92;1.27;;;23.20;31.80;;;;;;20837338;28;20153;-65
2021/07/07 22:23:09;;;;;;;2.73;1.33;;;23.10;31.80;;;;;;20835205;28;20057;-66
2021/07/07 22:33:11;;;;;;;3.05;1.40;;;23.00;32.00;;;;;;20833940;28;20079;-64
2021/07/07 22:43:15;;;;;;;4.53;1.30;;;22.90;32.60;;;;;;20834114;28;20156;-70
2021/07/07 22:53:17;;;;;;;5.80;1.23;;;22.60;33.00;;;;;;20833357;28;20121;-65
2021/07/07 23:03:19;;;;;;;5.18;1.42;;;22.40;33.40;;;;;;20832777;28;20049;-65
2021/07/07 23:13:22;;;;;;;3.53;1.20;;;22.40;33.60;;;;;;20816842;28;20045;-68
2021/07/07 23:23:24;;;;;;;2.75;1.42;;;22.20;33.70;;;;;;20833340;28;20057;-71
2021/07/07 23:33:26;;;;;;;2.47;1.07;;;22.20;34.00;;;;;;20834242;28;20049;-69
2021/07/07 23:43:27;;;;;;;2.08;1.00;;;22.20;34.10;;;;;;20834855;28;20429;-69
2021/07/07 23:53:29;;;;;;;1.48;0.90;;;22.20;34.60;;;;;;20870160;28;20040;-67
